Time;durP1;ratioP1;P1;durP2;ratioP2;P2;SDS_P1;SDS_P2;PMS_P1;PMS_P2;Temp;Humidity;BMP_temperature;BMP_pressure;BME280_temperature;BME280_humidity;BME280_pressure;Samples;Min_cycle;Max_cycle;Signal;HPM_P1;HPM_P2
2021/11/02 00:00:48;;;;;;;6.10;2.58;;;;;;;;;;5034481;28;20032;-53
2021/11/02 00:03:14;;;;;;;2.42;2.10;;;;;;;;;;5034574;28;20053;-53
2021/11/02 00:05:40;;;;;;;4.25;2.70;;;;;;;;;;5034690;28;20025;-54
2021/11/02 00:08:06;;;;;;;3.65;2.10;;;;;;;;;;5034557;28;20032;-53
2021/11/02 00:10:32;;;;;;;5.82;3.20;;;;;;;;;;5034851;28;20026;-53
2021/11/02 00:12:58;;;;;;;3.97;2.50;;;;;;;;;;5032461;28;20052;-54
2021/11/02 00:15:26;;;;;;;3.88;2.55;;;;;;;;;;5034391;28;20064;-53
2021/11/02 00:17:56;;;;;;;3.78;2.05;;;;;;;;;;5034812;28;20030;-53
2021/11/02 00:20:22;;;;;;;3.13;2.20;;;;;;;;;;5034514;28;20037;-53
2021/11/02 00:22:56;;;;;;;4.95;2.33;;;;;;;;;;5033105;28;20431;-53
2021/11/02 00:25:40;;;;;;;3.55;2.15;;;;;;;;;;5034269;28;20458;-53
2021/11/02 00:28:06;;;;;;;3.72;2.35;;;;;;;;;;5034244;28;20482;-53
2021/11/02 00:30:32;;;;;;;4.15;2.70;;;;;;;;;;5034135;28;20041;-53
2021/11/02 00:32:59;;;;;;;3.03;2.30;;;;;;;;;;5033710;28;20025;-52
2021/11/02 00:35:26;;;;;;;3.50;2.55;;;;;;;;;;5034273;28;20107;-53
2021/11/02 00:37:52;;;;;;;4.35;2.40;;;;;;;;;;5034525;28;20022;-53
2021/11/02 00:40:19;;;;;;;4.32;1.88;;;;;;;;;;5033719;28;20021;-53
2021/11/02 00:45:27;;;;;;;5.40;2.80;;;;;;;;;;5033797;28;20029;-53
2021/11/02 00:47:53;;;;;;;3.40;2.20;;;;;;;;;;5034243;28;20017;-53
2021/11/02 00:50:21;;;;;;;3.50;2.50;;;;;;;;;;5033832;28;20026;-53
2021/11/02 00:52:47;;;;;;;3.47;2.15;;;;;;;;;;5032449;28;20171;-54
2021/11/02 00:55:13;;;;;;;4.95;2.22;;;;;;;;;;5033108;28;20040;-53
2021/11/02 00:57:39;;;;;;;3.30;2.55;;;;;;;;;;5034367;28;20026;-54
2021/11/02 01:00:07;;;;;;;3.78;2.75;;;;;;;;;;5033693;28;20136;-54
2021/11/02 01:02:33;;;;;;;3.20;2.47;;;;;;;;;;5033822;28;20109;-53
2021/11/02 01:04:59;;;;;;;6.50;3.30;;;;;;;;;;5032772;28;20082;-53
2021/11/02 01:07:25;;;;;;;5.85;2.85;;;;;;;;;;5033531;28;20018;-53
2021/11/02 01:09:52;;;;;;;3.95;2.83;;;;;;;;;;5033621;28;20360;-53
2021/11/02 01:12:18;;;;;;;5.28;2.83;;;;;;;;;;5033756;28;20036;-53
2021/11/02 01:14:44;;;;;;;6.55;3.30;;;;;;;;;;5032898;28;20116;-53
2021/11/02 01:17:10;;;;;;;5.00;3.50;;;;;;;;;;5033145;28;20022;-53
2021/11/02 01:19:36;;;;;;;5.95;3.00;;;;;;;;;;5033537;28;20025;-53
2021/11/02 01:22:02;;;;;;;5.50;3.72;;;;;;;;;;5033366;28;20021;-53
2021/11/02 01:24:28;;;;;;;6.30;3.58;;;;;;;;;;5032180;28;20105;-54
2021/11/02 01:26:55;;;;;;;5.80;3.17;;;;;;;;;;5033195;28;20026;-54
2021/11/02 01:29:21;;;;;;;6.35;3.17;;;;;;;;;;5033435;28;20026;-53
2021/11/02 01:31:47;;;;;;;6.40;4.28;;;;;;;;;;5033188;28;20079;-53
2021/11/02 01:34:13;;;;;;;7.78;3.35;;;;;;;;;;5032231;28;20021;-53
2021/11/02 01:36:39;;;;;;;5.85;3.05;;;;;;;;;;5032781;28;20044;-53
2021/11/02 01:39:07;;;;;;;7.07;3.72;;;;;;;;;;5033425;28;20022;-53
2021/11/02 01:41:34;;;;;;;6.90;3.97;;;;;;;;;;5032914;28;20037;-53
2021/11/02 01:44:00;;;;;;;9.05;4.13;;;;;;;;;;5032129;28;20428;-53
2021/11/02 01:46:26;;;;;;;7.88;3.53;;;;;;;;;;5032879;28;20435;-53
2021/11/02 01:48:53;;;;;;;5.03;3.53;;;;;;;;;;5032886;28;20029;-53
2021/11/02 01:51:20;;;;;;;6.53;4.30;;;;;;;;;;5033271;28;20025;-53
2021/11/02 01:53:46;;;;;;;5.28;3.33;;;;;;;;;;5030041;28;20033;-53
2021/11/02 01:56:12;;;;;;;5.78;3.05;;;;;;;;;;5032520;28;20037;-53
2021/11/02 01:58:39;;;;;;;5.63;3.95;;;;;;;;;;5032809;28;20613;-54
2021/11/02 02:01:06;;;;;;;4.63;2.90;;;;;;;;;;5030981;28;20037;-53
2021/11/02 02:03:38;;;;;;;5.05;3.40;;;;;;;;;;5031961;28;20021;-53
2021/11/02 02:06:10;;;;;;;8.43;3.63;;;;;;;;;;5033137;28;20029;-53
2021/11/02 02:08:52;;;;;;;4.38;3.05;;;;;;;;;;5032836;28;20451;-53
2021/11/02 02:11:21;;;;;;;4.95;3.08;;;;;;;;;;5032186;28;20032;-53
2021/11/02 02:13:52;;;;;;;5.82;3.58;;;;;;;;;;5032151;28;20033;-53
2021/11/02 02:16:20;;;;;;;5.38;2.88;;;;;;;;;;5032505;28;20044;-53
2021/11/02 02:18:56;;;;;;;9.60;3.15;;;;;;;;;;5033082;28;20050;-53
2021/11/02 02:21:37;;;;;;;7.43;3.85;;;;;;;;;;5032626;28;20044;-53
2021/11/02 02:24:06;;;;;;;6.47;3.85;;;;;;;;;;5031624;28;20032;-53
2021/11/02 02:26:35;;;;;;;4.43;3.30;;;;;;;;;;5032705;28;20021;-53
2021/11/02 02:29:03;;;;;;;7.90;3.35;;;;;;;;;;5032512;28;20110;-53
2021/11/02 02:31:31;;;;;;;6.35;3.10;;;;;;;;;;5032783;28;20037;-53
2021/11/02 02:33:58;;;;;;;6.63;3.83;;;;;;;;;;5031638;28;20120;-53
2021/11/02 02:36:25;;;;;;;6.10;3.25;;;;;;;;;;5032380;28;20037;-54
2021/11/02 02:38:52;;;;;;;5.07;3.30;;;;;;;;;;5032557;28;20104;-54
2021/11/02 02:41:20;;;;;;;5.57;3.15;;;;;;;;;;5031985;28;20451;-53
2021/11/02 02:43:47;;;;;;;7.03;3.78;;;;;;;;;;5032152;28;20026;-54
2021/11/02 02:46:13;;;;;;;4.55;2.80;;;;;;;;;;5032000;28;20439;-53
2021/11/02 02:48:41;;;;;;;5.20;3.25;;;;;;;;;;5032367;28;20367;-54
2021/11/02 02:51:08;;;;;;;5.53;3.72;;;;;;;;;;5032295;28;20049;-53
2021/11/02 02:53:34;;;;;;;6.88;3.88;;;;;;;;;;5030863;28;20080;-53
2021/11/02 02:56:03;;;;;;;5.60;3.67;;;;;;;;;;5030864;28;20079;-53
2021/11/02 02:58:33;;;;;;;6.15;3.83;;;;;;;;;;5032185;28;20210;-53
2021/11/02 03:00:59;;;;;;;6.35;3.92;;;;;;;;;;5032151;28;20025;-53
2021/11/02 03:03:26;;;;;;;3.50;2.88;;;;;;;;;;5030347;28;20147;-53
2021/11/02 03:05:53;;;;;;;5.22;3.35;;;;;;;;;;5034625;28;20033;-53
2021/11/02 03:08:22;;;;;;;9.45;3.78;;;;;;;;;;5036222;28;20083;-53
2021/11/02 03:10:51;;;;;;;9.23;3.57;;;;;;;;;;5035917;28;20029;-53
2021/11/02 03:13:18;;;;;;;7.88;3.03;;;;;;;;;;5034660;28;20026;-53
2021/11/02 03:43:32;;;;;;;4.97;3.10;;;;;;;;;;5035769;28;20116;-53
2021/11/02 03:43:43;;;;;;;5.32;3.40;;;;;;;;;;5012372;28;20045;-54
2021/11/02 03:59:55;;;;;;;7.15;3.70;;;;;;;;;;5035557;28;20517;-53
2021/11/02 05:14:02;;;;;;;8.52;4.18;;;;;;;;;;5032574;28;20037;-53
2021/11/02 05:50:09;;;;;;;9.95;4.72;;;;;;;;;;5033063;28;20045;-53
2021/11/02 06:00:24;;;;;;;6.15;4.65;;;;;;;;;;5043102;28;20477;-53
2021/11/02 06:05:44;;;;;;;6.25;3.15;;;;;;;;;;5050509;28;20036;-53
2021/11/02 06:23:18;;;;;;;6.72;3.60;;;;;;;;;;5052987;28;20044;-54
2021/11/02 06:28:14;;;;;;;5.13;3.38;;;;;;;;;;5052902;28;20553;-54
2021/11/02 06:30:46;;;;;;;5.68;3.40;;;;;;;;;;5052573;28;20041;-54
2021/11/02 06:33:27;;;;;;;4.47;2.65;;;;;;;;;;5051606;28;20037;-54
2021/11/02 06:44:04;;;;;;;6.60;3.50;;;;;;;;;;5055931;28;20083;-53
2021/11/02 07:18:48;;;;;;;5.22;3.15;;;;;;;;;;5055950;28;20056;-54
2021/11/02 07:21:23;;;;;;;5.13;3.20;;;;;;;;;;5055908;28;20112;-54
2021/11/02 07:23:59;;;;;;;3.85;2.28;;;;;;;;;;5054406;28;20060;-53
2021/11/02 08:46:50;;;;;;;5.45;3.25;;;;;;;;;;5054533;28;20039;-53
2021/11/02 08:49:17;;;;;;;5.00;3.25;;;;;;;;;;5053835;28;20499;-54
2021/11/02 08:51:43;;;;;;;4.40;2.90;;;;;;;;;;5054177;28;20033;-54
2021/11/02 08:54:09;;;;;;;4.45;3.13;;;;;;;;;;5053593;28;20025;-54
2021/11/02 08:56:35;;;;;;;5.40;2.88;;;;;;;;;;5053695;28;20113;-54
2021/11/02 08:59:01;;;;;;;8.10;3.88;;;;;;;;;;5053956;28;20435;-54
2021/11/02 09:01:27;;;;;;;8.63;3.42;;;;;;;;;;5054035;28;20021;-54
2021/11/02 09:04:00;;;;;;;5.70;3.58;;;;;;;;;;5052371;28;20017;-53
2021/11/02 09:06:27;;;;;;;6.07;3.85;;;;;;;;;;5053864;28;20025;-54
2021/11/02 09:08:54;;;;;;;4.43;3.38;;;;;;;;;;5054125;28;20032;-54
2021/11/02 09:11:21;;;;;;;5.93;3.58;;;;;;;;;;5053854;28;20021;-54
2021/11/02 09:13:52;;;;;;;6.35;4.00;;;;;;;;;;5052721;28;20496;-54
2021/11/02 09:16:19;;;;;;;6.82;3.40;;;;;;;;;;5053103;28;20451;-54
2021/11/02 09:18:46;;;;;;;7.40;3.33;;;;;;;;;;5053284;28;20362;-53
2021/11/02 09:21:13;;;;;;;3.38;2.65;;;;;;;;;;5053424;28;20035;-53
2021/11/02 09:23:42;;;;;;;5.50;2.72;;;;;;;;;;5052638;28;20342;-55
2021/11/02 09:26:08;;;;;;;4.10;2.77;;;;;;;;;;5053710;28;20127;-54
2021/11/02 09:28:35;;;;;;;5.28;3.20;;;;;;;;;;5053276;28;20021;-54
2021/11/02 09:31:02;;;;;;;5.45;3.13;;;;;;;;;;5052974;28;20043;-54
2021/11/02 09:33:28;;;;;;;3.47;2.17;;;;;;;;;;5052576;28;20455;-54
2021/11/02 09:35:58;;;;;;;2.55;1.88;;;;;;;;;;5052843;28;20037;-53
2021/11/02 09:38:30;;;;;;;2.40;1.80;;;;;;;;;;5053525;28;20354;-54
2021/11/02 09:40:59;;;;;;;1.65;1.48;;;;;;;;;;5053113;28;20075;-54
2021/11/02 09:43:28;;;;;;;2.97;1.73;;;;;;;;;;5052041;28;20021;-54
2021/11/02 09:46:13;;;;;;;2.15;1.45;;;;;;;;;;5053247;28;20226;-53
2021/11/02 09:48:51;;;;;;;2.00;1.63;;;;;;;;;;5053108;28;20040;-54
2021/11/02 09:51:20;;;;;;;3.55;1.65;;;;;;;;;;5052687;28;20103;-54
2021/11/02 09:53:47;;;;;;;1.48;1.38;;;;;;;;;;5052190;28;20450;-54
2021/11/02 09:56:37;;;;;;;2.03;1.80;;;;;;;;;;5052685;28;20037;-53
2021/11/02 09:59:22;;;;;;;4.00;1.45;;;;;;;;;;5052574;28;20028;-54
2021/11/02 10:01:57;;;;;;;1.58;1.08;;;;;;;;;;5052967;28;20037;-54
2021/11/02 10:04:34;;;;;;;1.50;1.20;;;;;;;;;;5051969;28;20028;-54
2021/11/02 10:07:05;;;;;;;1.38;1.23;;;;;;;;;;5053172;28;20041;-54
2021/11/02 10:09:32;;;;;;;3.15;1.17;;;;;;;;;;5050530;28;20037;-53
2021/11/02 10:12:03;;;;;;;2.85;1.20;;;;;;;;;;5052449;28;20443;-54
2021/11/02 10:14:54;;;;;;;1.45;1.13;;;;;;;;;;5049718;28;20340;-54
2021/11/02 10:17:26;;;;;;;1.95;0.90;;;;;;;;;;5048818;28;20021;-54
2021/11/02 10:20:02;;;;;;;2.78;0.88;;;;;;;;;;5052101;28;20032;-53
2021/11/02 10:22:47;;;;;;;0.70;0.70;;;;;;;;;;5053013;28;20021;-54
2021/11/02 10:25:15;;;;;;;1.08;1.08;;;;;;;;;;5033021;28;20026;-54
2021/11/02 10:27:59;;;;;;;0.77;0.77;;;;;;;;;;5032645;28;20444;-54
2021/11/02 10:30:29;;;;;;;1.77;0.85;;;;;;;;;;5032172;28;20041;-53
2021/11/02 10:32:55;;;;;;;;;;;;;;;;;;5031497;28;20463;-53
2021/11/02 10:35:30;;;;;;;4.25;1.38;;;;;;;;;;5032354;28;19984;-54
2021/11/02 10:38:02;;;;;;;0.95;0.85;;;;;;;;;;5032764;28;20026;-54
2021/11/02 10:40:32;;;;;;;0.50;0.50;;;;;;;;;;5046615;28;20405;-54
2021/11/02 10:42:59;;;;;;;;;;;;;;;;;;5051940;28;20036;-54
2021/11/02 10:45:29;;;;;;;0.70;0.70;;;;;;;;;;5052412;28;19950;-54
2021/11/02 10:47:58;;;;;;;1.17;0.68;;;;;;;;;;5052286;28;20028;-53
2021/11/02 10:50:27;;;;;;;0.55;0.55;;;;;;;;;;5052870;28;20029;-53
2021/11/02 10:52:56;;;;;;;0.43;0.43;;;;;;;;;;5051599;28;20035;-54
2021/11/02 10:55:24;;;;;;;0.47;0.47;;;;;;;;;;5052118;28;20120;-53
2021/11/02 10:57:59;;;;;;;0.47;0.47;;;;;;;;;;5051958;28;20029;-53
2021/11/02 11:00:26;;;;;;;0.60;0.60;;;;;;;;;;5052456;28;20021;-53
2021/11/02 11:02:55;;;;;;;0.43;0.43;;;;;;;;;;5051915;28;20033;-53
2021/11/02 11:05:25;;;;;;;0.50;0.50;;;;;;;;;;5052362;28;20078;-53
2021/11/02 11:07:52;;;;;;;0.30;0.30;;;;;;;;;;5051867;28;20017;-53
2021/11/02 11:10:18;;;;;;;0.40;0.40;;;;;;;;;;5052036;28;20037;-53
2021/11/02 11:12:51;;;;;;;0.50;0.50;;;;;;;;;;5052250;28;20053;-54
2021/11/02 11:15:18;;;;;;;2.13;0.68;;;;;;;;;;5051693;28;20359;-53
2021/11/02 11:17:50;;;;;;;0.50;0.50;;;;;;;;;;5051848;28;20021;-53
2021/11/02 11:20:17;;;;;;;0.47;0.47;;;;;;;;;;5052647;28;20024;-53
2021/11/02 11:22:44;;;;;;;0.47;0.40;;;;;;;;;;5052081;28;20059;-53
2021/11/02 11:25:19;;;;;;;0.70;0.50;;;;;;;;;;5032849;28;20455;-54
2021/11/02 11:27:56;;;;;;;1.55;0.60;;;;;;;;;;5035261;28;20033;-54
2021/11/02 11:30:23;;;;;;;0.47;0.40;;;;;;;;;;5035892;28;20029;-54
2021/11/02 11:32:50;;;;;;;0.40;0.40;;;;;;;;;;5035657;28;20041;-53
2021/11/02 11:35:16;;;;;;;0.52;0.52;;;;;;;;;;5035384;28;20044;-53
2021/11/02 11:37:43;;;;;;;0.30;0.30;;;;;;;;;;5035183;28;20359;-54
2021/11/02 11:40:11;;;;;;;0.40;0.40;;;;;;;;;;5035778;28;20112;-54
2021/11/02 11:42:38;;;;;;;1.00;0.60;;;;;;;;;;5035173;28;20047;-54
2021/11/02 11:45:07;;;;;;;0.40;0.40;;;;;;;;;;5034211;28;20119;-53
2021/11/02 11:47:33;;;;;;;0.40;0.40;;;;;;;;;;5035064;28;20083;-53
2021/11/02 11:50:12;;;;;;;0.50;0.50;;;;;;;;;;5034573;28;20088;-54
2021/11/02 11:52:44;;;;;;;0.38;0.38;;;;;;;;;;5034986;28;20058;-54
2021/11/02 11:55:10;;;;;;;0.40;0.40;;;;;;;;;;5034236;28;20029;-54
2021/11/02 11:57:38;;;;;;;0.50;0.50;;;;;;;;;;5033810;28;20030;-53
2021/11/02 12:00:07;;;;;;;0.50;0.50;;;;;;;;;;5035128;28;20466;-53
2021/11/02 12:02:47;;;;;;;0.55;0.55;;;;;;;;;;5034842;28;20631;-54
2021/11/02 12:05:17;;;;;;;0.40;0.40;;;;;;;;;;5034456;28;20112;-54
2021/11/02 12:08:04;;;;;;;0.47;0.47;;;;;;;;;;5035058;28;20021;-54
2021/11/02 12:10:30;;;;;;;0.45;0.45;;;;;;;;;;5054225;28;20057;-54
2021/11/02 12:12:57;;;;;;;0.68;0.50;;;;;;;;;;5045447;28;20021;-54
2021/11/02 12:15:23;;;;;;;0.70;0.60;;;;;;;;;;5054156;28;20037;-53
2021/11/02 12:17:50;;;;;;;1.75;0.50;;;;;;;;;;5054132;28;20025;-53
2021/11/02 12:20:17;;;;;;;0.88;0.47;;;;;;;;;;5053882;28;20031;-53
2021/11/02 12:22:53;;;;;;;1.23;0.55;;;;;;;;;;5051791;28;20108;-53
2021/11/02 12:25:21;;;;;;;0.40;0.40;;;;;;;;;;5054289;28;20053;-54
2021/11/02 12:27:47;;;;;;;0.90;0.80;;;;;;;;;;5053804;28;20040;-53
2021/11/02 12:30:14;;;;;;;0.50;0.50;;;;;;;;;;5053091;28;20099;-54
2021/11/02 12:32:46;;;;;;;0.75;0.50;;;;;;;;;;5052453;28;20028;-53
2021/11/02 12:35:14;;;;;;;0.40;0.40;;;;;;;;;;5053323;28;20047;-54
2021/11/02 12:38:10;;;;;;;0.40;0.40;;;;;;;;;;5048448;28;20022;-54
2021/11/02 12:40:37;;;;;;;0.68;0.57;;;;;;;;;;5042838;28;20029;-53
2021/11/02 12:43:04;;;;;;;0.43;0.43;;;;;;;;;;5050393;28;20093;-54
2021/11/02 12:45:35;;;;;;;0.90;0.70;;;;;;;;;;5035260;28;20052;-54
2021/11/02 12:48:02;;;;;;;0.82;0.63;;;;;;;;;;5047904;28;20067;-53
2021/11/02 12:50:33;;;;;;;0.40;0.40;;;;;;;;;;5039691;28;20033;-54
2021/11/02 12:53:00;;;;;;;0.90;0.70;;;;;;;;;;5010923;28;20022;-54
2021/11/02 12:55:29;;;;;;;0.50;0.50;;;;;;;;;;5014129;28;20116;-53
2021/11/02 12:58:02;;;;;;;0.50;0.50;;;;;;;;;;5041689;28;20028;-53
2021/11/02 13:00:28;;;;;;;2.25;0.50;;;;;;;;;;5051179;28;20039;-53
2021/11/02 13:02:58;;;;;;;0.52;0.50;;;;;;;;;;5032883;28;20025;-54
2021/11/02 13:05:25;;;;;;;0.40;0.40;;;;;;;;;;5050914;28;20217;-53
2021/11/02 13:08:06;;;;;;;0.60;0.57;;;;;;;;;;5050761;28;20025;-54
2021/11/02 13:10:33;;;;;;;0.65;0.55;;;;;;;;;;5049966;28;20041;-54
2021/11/02 13:13:09;;;;;;;1.02;0.50;;;;;;;;;;5049962;28;20472;-53
2021/11/02 13:15:48;;;;;;;0.50;0.50;;;;;;;;;;5050726;28;20049;-53
2021/11/02 13:18:33;;;;;;;0.52;0.52;;;;;;;;;;5052808;28;20462;-53
2021/11/02 13:21:20;;;;;;;0.50;0.50;;;;;;;;;;5052935;28;20029;-53
2021/11/02 13:23:49;;;;;;;0.50;0.50;;;;;;;;;;5046891;28;20474;-53
2021/11/02 13:26:19;;;;;;;0.50;0.50;;;;;;;;;;5032850;28;20036;-53
2021/11/02 13:28:45;;;;;;;0.47;0.38;;;;;;;;;;5032692;28;20026;-54
2021/11/02 13:31:25;;;;;;;0.73;0.70;;;;;;;;;;5033046;28;20037;-54
2021/11/02 13:34:01;;;;;;;0.40;0.40;;;;;;;;;;5029977;28;20018;-54
2021/11/02 13:36:28;;;;;;;0.70;0.60;;;;;;;;;;5033476;28;20049;-54
2021/11/02 13:38:58;;;;;;;1.02;0.63;;;;;;;;;;5032978;28;20407;-54
2021/11/02 13:41:26;;;;;;;0.70;0.70;;;;;;;;;;5032771;28;20033;-53
2021/11/02 13:43:55;;;;;;;1.02;0.95;;;;;;;;;;5032406;28;20025;-54
2021/11/02 13:46:24;;;;;;;1.95;0.52;;;;;;;;;;5033278;28;20068;-54
2021/11/02 13:48:50;;;;;;;0.75;0.60;;;;;;;;;;5032411;28;20036;-54
2021/11/02 13:51:17;;;;;;;0.70;0.70;;;;;;;;;;5032656;28;20104;-54
2021/11/02 13:53:44;;;;;;;1.42;0.60;;;;;;;;;;5031404;28;20113;-53
2021/11/02 13:56:20;;;;;;;0.40;0.40;;;;;;;;;;5031305;28;20037;-53
2021/11/02 13:58:47;;;;;;;0.40;0.40;;;;;;;;;;5042530;28;20040;-54
2021/11/02 14:01:24;;;;;;;0.43;0.40;;;;;;;;;;5051792;28;20025;-54
2021/11/02 14:03:56;;;;;;;0.40;0.40;;;;;;;;;;5050626;28;20528;-54
2021/11/02 14:06:23;;;;;;;0.43;0.43;;;;;;;;;;5053200;28;20041;-53
2021/11/02 14:08:50;;;;;;;0.40;0.40;;;;;;;;;;5052170;28;20033;-53
2021/11/02 14:11:30;;;;;;;0.77;0.60;;;;;;;;;;5052112;28;20044;-54
2021/11/02 14:13:56;;;;;;;0.55;0.55;;;;;;;;;;5051814;28;20048;-53
2021/11/02 14:16:35;;;;;;;0.40;0.40;;;;;;;;;;5052550;28;20037;-54
2021/11/02 14:19:01;;;;;;;0.40;0.40;;;;;;;;;;5052614;28;20051;-53
2021/11/02 14:21:48;;;;;;;0.63;0.63;;;;;;;;;;5052501;28;20025;-54
2021/11/02 14:24:14;;;;;;;0.50;0.50;;;;;;;;;;5050445;28;20029;-53
2021/11/02 14:26:47;;;;;;;0.55;0.55;;;;;;;;;;5051327;28;20029;-54
2021/11/02 14:29:13;;;;;;;1.50;0.63;;;;;;;;;;5052116;28;20056;-53
2021/11/02 14:31:45;;;;;;;0.50;0.50;;;;;;;;;;5051834;28;20130;-54
2021/11/02 14:34:12;;;;;;;0.60;0.60;;;;;;;;;;5036872;28;20029;-53
2021/11/02 14:36:39;;;;;;;0.85;0.60;;;;;;;;;;5051902;28;20041;-53
2021/11/02 14:39:09;;;;;;;1.02;0.93;;;;;;;;;;5051903;28;20032;-54
2021/11/02 14:41:36;;;;;;;0.98;0.73;;;;;;;;;;5052512;28;20063;-54
2021/11/02 14:44:14;;;;;;;0.60;0.60;;;;;;;;;;5051567;28;20040;-53
2021/11/02 14:46:44;;;;;;;0.75;0.50;;;;;;;;;;5052219;28;20021;-54
2021/11/02 14:49:10;;;;;;;;;;;;;;;;;;5052440;28;20045;-54
2021/11/02 14:51:36;;;;;;;1.40;0.63;;;;;;;;;;5052580;28;19915;-54
2021/11/02 14:54:22;;;;;;;0.43;0.43;;;;;;;;;;5050600;28;20025;-54
2021/11/02 14:56:48;;;;;;;0.40;0.40;;;;;;;;;;5052424;28;20120;-53
2021/11/02 14:59:15;;;;;;;0.25;0.25;;;;;;;;;;5052335;28;20232;-54
2021/11/02 15:01:41;;;;;;;0.30;0.30;;;;;;;;;;5053369;28;20048;-54
2021/11/02 15:04:19;;;;;;;1.45;0.50;;;;;;;;;;5055016;28;20118;-54
2021/11/02 15:06:55;;;;;;;1.75;0.90;;;;;;;;;;5055958;28;20070;-54
2021/11/02 15:09:22;;;;;;;0.50;0.50;;;;;;;;;;5045745;28;20037;-54
2021/11/02 15:11:50;;;;;;;1.40;0.60;;;;;;;;;;5038450;28;20053;-54
2021/11/02 15:14:23;;;;;;;0.40;0.40;;;;;;;;;;5034660;28;20455;-54
2021/11/02 15:16:50;;;;;;;0.90;0.45;;;;;;;;;;5035450;28;20040;-54
2021/11/02 15:19:17;;;;;;;4.15;0.40;;;;;;;;;;5050055;28;20028;-54
2021/11/02 15:21:45;;;;;;;0.40;0.40;;;;;;;;;;5055591;28;20094;-53
2021/11/02 15:24:20;;;;;;;0.38;0.38;;;;;;;;;;5054472;28;20028;-54
2021/11/02 15:26:55;;;;;;;1.25;0.70;;;;;;;;;;5055016;28;20119;-54
2021/11/02 15:29:26;;;;;;;0.57;0.45;;;;;;;;;;5055373;28;20035;-54
2021/11/02 15:32:04;;;;;;;0.40;0.40;;;;;;;;;;5054707;28;20033;-53
2021/11/02 15:34:51;;;;;;;0.28;0.28;;;;;;;;;;5054055;28;20091;-54
2021/11/02 15:37:27;;;;;;;0.40;0.40;;;;;;;;;;5054437;28;20446;-54
2021/11/02 15:39:54;;;;;;;0.30;0.30;;;;;;;;;;5054948;28;20033;-54
2021/11/02 15:42:21;;;;;;;0.40;0.40;;;;;;;;;;5055143;28;20455;-53
2021/11/02 15:44:48;;;;;;;0.52;0.52;;;;;;;;;;5054543;28;20413;-54
2021/11/02 15:47:17;;;;;;;1.23;0.70;;;;;;;;;;5053177;28;20033;-54
2021/11/02 15:49:53;;;;;;;1.23;0.70;;;;;;;;;;5055140;28;20120;-53
2021/11/02 15:52:19;;;;;;;0.55;0.55;;;;;;;;;;5054692;28;20029;-54
2021/11/02 15:54:46;;;;;;;0.50;0.50;;;;;;;;;;5053831;28;20021;-54
2021/11/02 15:57:12;;;;;;;5.05;0.55;;;;;;;;;;5052996;28;20356;-54
2021/11/02 15:59:38;;;;;;;0.43;0.43;;;;;;;;;;5053499;28;20032;-53
2021/11/02 16:02:04;;;;;;;0.57;0.50;;;;;;;;;;5054288;28;20021;-53
2021/11/02 16:04:30;;;;;;;7.00;0.88;;;;;;;;;;5052794;28;20021;-53
2021/11/02 16:06:56;;;;;;;0.95;0.80;;;;;;;;;;5054810;28;20103;-53
2021/11/02 16:09:23;;;;;;;3.17;1.30;;;;;;;;;;5053914;28;20422;-54
2021/11/02 16:11:49;;;;;;;1.70;1.30;;;;;;;;;;5054060;28;20032;-53
2021/11/02 16:14:19;;;;;;;2.22;1.15;;;;;;;;;;5053074;28;20017;-54
2021/11/02 16:16:49;;;;;;;2.97;1.00;;;;;;;;;;5052557;28;20071;-53
2021/11/02 16:19:16;;;;;;;1.35;1.05;;;;;;;;;;5053454;28;20032;-54
2021/11/02 16:21:42;;;;;;;4.13;1.40;;;;;;;;;;5054342;28;20067;-54
2021/11/02 16:24:10;;;;;;;6.43;2.10;;;;;;;;;;5052802;28;20401;-53
2021/11/02 16:26:39;;;;;;;3.75;1.88;;;;;;;;;;5054269;28;20462;-54
2021/11/02 16:29:12;;;;;;;4.47;1.42;;;;;;;;;;5054490;28;20028;-54
2021/11/02 16:31:40;;;;;;;5.57;1.90;;;;;;;;;;5046962;28;20029;-53
2021/11/02 16:34:17;;;;;;;2.38;1.10;;;;;;;;;;5042519;28;20303;-53
2021/11/02 16:36:43;;;;;;;1.40;1.08;;;;;;;;;;5042888;28;20090;-53
2021/11/02 16:39:15;;;;;;;1.17;0.90;;;;;;;;;;5042629;28;20045;-54
2021/11/02 16:41:49;;;;;;;0.65;0.50;;;;;;;;;;5043581;28;20021;-53
2021/11/02 16:44:17;;;;;;;0.50;0.50;;;;;;;;;;5041455;28;20032;-53
2021/11/02 16:46:45;;;;;;;0.70;0.70;;;;;;;;;;5047232;28;20155;-53
2021/11/02 16:49:11;;;;;;;3.08;1.42;;;;;;;;;;5053660;28;20033;-54
2021/11/02 16:51:48;;;;;;;2.30;1.23;;;;;;;;;;5053604;28;20017;-53
2021/11/02 16:54:15;;;;;;;1.65;1.10;;;;;;;;;;5053146;28;20028;-54
2021/11/02 16:56:55;;;;;;;1.17;0.90;;;;;;;;;;5053602;28;20094;-54
2021/11/02 16:59:39;;;;;;;1.77;1.00;;;;;;;;;;5053363;28;20018;-53
2021/11/02 17:02:24;;;;;;;0.70;0.60;;;;;;;;;;5053766;28;20078;-53
2021/11/02 17:05:10;;;;;;;1.23;0.80;;;;;;;;;;5052779;28;20021;-54
2021/11/02 17:07:42;;;;;;;1.63;0.70;;;;;;;;;;5053375;28;20032;-53
2021/11/02 17:10:16;;;;;;;1.40;0.80;;;;;;;;;;5053221;28;20112;-54
2021/11/02 17:12:42;;;;;;;1.50;1.00;;;;;;;;;;5053399;28;20117;-54
2021/11/02 17:15:08;;;;;;;2.28;1.17;;;;;;;;;;5051326;28;20076;-55
2021/11/02 17:17:41;;;;;;;1.08;0.95;;;;;;;;;;5053307;28;20354;-54
2021/11/02 17:20:11;;;;;;;1.48;1.00;;;;;;;;;;5056657;28;20028;-54
2021/11/02 17:22:39;;;;;;;0.75;0.75;;;;;;;;;;5057404;28;20104;-54
2021/11/02 17:25:05;;;;;;;1.40;1.00;;;;;;;;;;5066692;28;20104;-54
2021/11/02 17:27:31;;;;;;;0.95;0.88;;;;;;;;;;5072818;28;20351;-54
2021/11/02 17:29:57;;;;;;;1.30;0.73;;;;;;;;;;5043141;28;20029;-54
2021/11/02 17:32:23;;;;;;;2.58;1.25;;;;;;;;;;5042492;28;20052;-54
2021/11/02 17:34:49;;;;;;;0.90;0.77;;;;;;;;;;5044306;28;20093;-54
2021/11/02 17:37:16;;;;;;;1.13;0.85;;;;;;;;;;5046109;28;20106;-54
2021/11/02 17:39:42;;;;;;;0.65;0.65;;;;;;;;;;5036682;28;20032;-54
2021/11/02 17:42:09;;;;;;;1.85;1.00;;;;;;;;;;5035753;28;20024;-54
2021/11/02 17:44:38;;;;;;;2.95;0.82;;;;;;;;;;5027565;28;20028;-54
2021/11/02 17:47:09;;;;;;;0.90;0.90;;;;;;;;;;5040694;28;21126;-54
2021/11/02 17:49:36;;;;;;;1.20;0.85;;;;;;;;;;5038590;28;20028;-53
2021/11/02 17:52:02;;;;;;;3.65;1.10;;;;;;;;;;5037376;28;20451;-54
2021/11/02 17:54:28;;;;;;;0.82;0.73;;;;;;;;;;5031994;28;20068;-55
2021/11/02 17:56:54;;;;;;;0.77;0.77;;;;;;;;;;5031509;28;20047;-54
2021/11/02 17:59:23;;;;;;;1.55;1.25;;;;;;;;;;5031074;28;20455;-54
2021/11/02 18:01:51;;;;;;;2.03;0.90;;;;;;;;;;5045368;28;20081;-54
2021/11/02 18:04:18;;;;;;;2.05;0.70;;;;;;;;;;5036345;28;20041;-54
2021/11/02 18:06:44;;;;;;;2.08;1.20;;;;;;;;;;5037508;28;20401;-53
2021/11/02 18:09:12;;;;;;;4.47;1.10;;;;;;;;;;5044950;28;20040;-56
2021/11/02 18:11:39;;;;;;;2.38;0.90;;;;;;;;;;5043131;28;20048;-56
2021/11/02 18:14:05;;;;;;;2.08;0.88;;;;;;;;;;5038583;28;20040;-56
2021/11/02 18:16:31;;;;;;;5.90;1.73;;;;;;;;;;5042252;28;20033;-56
2021/11/02 18:19:00;;;;;;;40.17;9.77;;;;;;;;;;5033182;28;20026;-56
2021/11/02 18:21:27;;;;;;;13.10;5.22;;;;;;;;;;5032127;28;20025;-56
2021/11/02 18:23:53;;;;;;;7.25;3.00;;;;;;;;;;5031164;28;20021;-56
2021/11/02 18:26:22;;;;;;;9.45;3.53;;;;;;;;;;5032832;28;20057;-56
2021/11/02 18:28:49;;;;;;;3.28;1.75;;;;;;;;;;5032418;28;20037;-56
2021/11/02 18:31:15;;;;;;;5.03;2.83;;;;;;;;;;5032090;28;20454;-56
2021/11/02 18:33:41;;;;;;;8.10;2.80;;;;;;;;;;5031677;28;20527;-55
2021/11/02 18:36:09;;;;;;;8.73;3.50;;;;;;;;;;5033249;28;20037;-56
2021/11/02 18:38:36;;;;;;;4.72;1.92;;;;;;;;;;5050647;28;20025;-56
2021/11/02 18:41:02;;;;;;;2.47;1.52;;;;;;;;;;5063382;28;20131;-56
2021/11/02 18:43:29;;;;;;;6.53;3.80;;;;;;;;;;5050079;28;20036;-55
2021/11/02 18:45:56;;;;;;;21.95;6.88;;;;;;;;;;5038229;28;20026;-56
2021/11/02 18:48:23;;;;;;;9.77;5.25;;;;;;;;;;5044642;28;20029;-56
2021/11/02 18:50:49;;;;;;;28.65;8.98;;;;;;;;;;5043297;28;20021;-56
2021/11/02 18:53:15;;;;;;;17.98;6.88;;;;;;;;;;5040251;28;20367;-56
2021/11/02 18:55:42;;;;;;;10.65;3.72;;;;;;;;;;5038748;28;20105;-56
2021/11/02 18:58:08;;;;;;;8.63;3.85;;;;;;;;;;5046199;28;20040;-56
2021/11/02 19:00:34;;;;;;;5.72;3.13;;;;;;;;;;5038365;28;20033;-55
2021/11/02 19:03:00;;;;;;;5.78;2.28;;;;;;;;;;5034022;28;20022;-56
2021/11/02 19:05:26;;;;;;;4.28;1.88;;;;;;;;;;5035020;28;20022;-56
2021/11/02 19:07:52;;;;;;;2.58;1.80;;;;;;;;;;5035767;28;20040;-56
2021/11/02 19:10:18;;;;;;;3.55;2.25;;;;;;;;;;5035673;28;20025;-56
2021/11/02 19:12:44;;;;;;;4.10;1.73;;;;;;;;;;5046730;28;20118;-56
2021/11/02 19:15:12;;;;;;;6.03;1.70;;;;;;;;;;5034517;28;20095;-56
2021/11/02 19:17:38;;;;;;;1.33;1.23;;;;;;;;;;5035933;28;20033;-56
2021/11/02 19:20:04;;;;;;;1.73;1.23;;;;;;;;;;5035009;28;20157;-56
2021/11/02 19:22:30;;;;;;;1.67;1.20;;;;;;;;;;5035288;28;20342;-56
2021/11/02 19:24:56;;;;;;;3.53;2.20;;;;;;;;;;5034851;28;20045;-56
2021/11/02 19:27:23;;;;;;;3.47;2.17;;;;;;;;;;5036818;28;20470;-56
2021/11/02 19:29:52;;;;;;;3.33;2.50;;;;;;;;;;5053311;28;20033;-56
2021/11/02 19:32:18;;;;;;;4.65;2.33;;;;;;;;;;5075295;28;20052;-56
2021/11/02 19:34:45;;;;;;;4.05;2.13;;;;;;;;;;5074174;28;20450;-56
2021/11/02 19:37:11;;;;;;;5.80;2.03;;;;;;;;;;5075474;28;20412;-55
2021/11/02 19:39:37;;;;;;;2.65;2.30;;;;;;;;;;5075213;28;20204;-56
2021/11/02 19:42:03;;;;;;;1.60;1.48;;;;;;;;;;5075062;28;20024;-55
2021/11/02 19:44:34;;;;;;;3.13;1.95;;;;;;;;;;5074139;28;20024;-56
2021/11/02 19:47:00;;;;;;;2.28;1.95;;;;;;;;;;5074868;28;20038;-56
2021/11/02 19:49:27;;;;;;;3.58;2.22;;;;;;;;;;5073378;28;20370;-56
2021/11/02 19:51:53;;;;;;;4.10;1.90;;;;;;;;;;5074636;28;20350;-55